Time,TemperatureF,DewpointF,PressureIn,WindDirection,WindDirectionDegrees,WindSpeedMPH,WindSpeedGustMPH,Humidity,HourlyPrecipIn,Conditions,Clouds,dailyrainin,SoftwareType,DateUTC
2013-03-03 00:00:00,27.0,8.4,30.09,NE,51,9.0,15.0,45,0.00,CLR,CLR,0.00,WeatherDisplay:10.37,2013-03-03 09:00:00,
2013-03-03 00:05:00,27.0,8.4,30.09,NE,51,8.0,10.0,45,0.00,CLR,CLR,0.00,WeatherDisplay:10.37,2013-03-03 09:05:00,
2013-03-03 00:10:00,27.1,8.5,30.09,NE,49,9.0,17.0,45,0.00,CLR,CLR,0.00,WeatherDisplay:10.37,2013-03-03 09:10:00,
2013-03-03 00:20:00,27.1,8.1,30.09,NE,47,10.0,16.0,44,0.00,CLR,CLR,0.00,WeatherDisplay:10.37,2013-03-03 09:20:00,
2013-03-03 00:25:00,27.1,8.0,30.09,NE,44,12.0,18.0,44,0.00,CLR,CLR,0.00,WeatherDisplay:10.37,2013-03-03 09:25:00,
2013-03-03 00:30:00,27.1,8.1,30.09,NE,37,10.0,16.0,44,0.00,CLR,CLR,0.00,WeatherDisplay:10.37,2013-03-03 09:30:00,
2013-03-03 00:39:00,26.8,7.8,30.09,NE,36,7.0,14.0,44,0.00,CLR,CLR,0.00,WeatherDisplay:10.37,2013-03-03 09:39:00,
2013-03-03 00:44:00,26.8,7.8,30.09,NE,35,7.0,14.0,44,0.00,CLR,CLR,0.00,WeatherDisplay:10.37,2013-03-03 09:44:00,
2013-03-03 00:49:00,27.0,7.9,30.09,NE,45,9.0,16.0,44,0.00,CLR,CLR,0.00,WeatherDisplay:10.37,2013-03-03 09:49:00,
2013-03-03 00:59:00,27.1,8.1,30.09,NE,43,9.0,17.0,44,0.00,CLR,CLR,0.00,WeatherDisplay:10.37,2013-03-03 09:59:00,
2013-03-03 01:04:00,27.1,8.1,30.09,NE,39,8.0,18.0,44,0.00,CLR,CLR,0.00,WeatherDisplay:10.37,2013-03-03 10:04:00,
2013-03-03 01:09:00,27.0,7.9,30.09,NE,36,9.0,16.0,44,0.00,CLR,CLR,0.00,WeatherDisplay:10.37,2013-03-03 10:09:00,
2013-03-03 01:14:00,26.8,7.8,30.09,NE,35,9.0,16.0,44,0.00,CLR,CLR,0.00,WeatherDisplay:10.37,2013-03-03 10:14:00,
2013-03-03 01:19:00,26.6,8.1,30.09,NE,37,7.0,14.0,45,0.00,CLR,CLR,0.00,WeatherDisplay:10.37,2013-03-03 10:19:00,
2013-03-03 01:24:00,26.4,7.9,30.09,NE,44,8.0,14.0,45,0.00,CLR,CLR,0.00,WeatherDisplay:10.37,2013-03-03 10:24:00,
2013-03-03 01:34:00,26.6,8.1,30.09,NE,46,9.0,14.0,45,0.00,CLR,CLR,0.00,WeatherDisplay:10.37,2013-03-03 10:34:00,
2013-03-03 01:44:00,26.8,8.2,30.09,NE,44,10.0,19.0,45,0.00,CLR,CLR,0.00,WeatherDisplay:10.37,2013-03-03 10:44:00,
2013-03-03 01:49:00,27.0,8.4,30.09,NE,47,10.0,20.0,45,0.00,CLR,CLR,0.00,WeatherDisplay:10.37,2013-03-03 10:49:00,
2013-03-03 01:59:00,26.8,8.2,30.09,NE,34,9.0,18.0,45,0.00,CLR,CLR,0.00,WeatherDisplay:10.37,2013-03-03 10:59:00,
2013-03-03 02:04:00,26.6,8.1,30.09,NE,37,9.0,16.0,45,0.00,CLR,CLR,0.00,WeatherDisplay:10.37,2013-03-03 11:04:00,
2013-03-03 02:14:00,26.4,7.9,30.09,NE,41,9.0,18.0,45,0.00,CLR,CLR,0.00,WeatherDisplay:10.37,2013-03-03 11:14:00,
2013-03-03 02:19:00,26.2,7.8,30.09,NE,38,8.0,16.0,45,0.00,CLR,CLR,0.00,WeatherDisplay:10.37,2013-03-03 11:19:00,
2013-03-03 02:29:00,26.4,7.9,30.09,NE,46,9.0,14.0,45,0.00,CLR,CLR,0.00,WeatherDisplay:10.37,2013-03-03 11:29:00,
2013-03-03 02:35:00,26.6,8.1,30.09,NE,40,9.0,16.0,45,0.00,CLR,CLR,0.00,WeatherDisplay:10.37,2013-03-03 11:35:00,
2013-03-03 02:45:00,26.6,8.1,30.09,NE,41,8.0,14.0,45,0.00,CLR,CLR,0.00,WeatherDisplay:10.37,2013-03-03 11:45:00,
2013-03-03 02:55:00,26.6,8.1,30.12,NE,45,9.0,21.0,45,0.00,CLR,CLR,0.00,WeatherDisplay:10.37,2013-03-03 11:55:00,
2013-03-03 03:00:00,26.6,7.6,30.12,NE,50,9.0,16.0,44,0.00,CLR,CLR,0.00,WeatherDisplay:10.37,2013-03-03 12:00:00,
2013-03-03 03:10:00,26.4,7.9,30.12,NE,46,9.0,16.0,45,0.00,CLR,CLR,0.00,WeatherDisplay:10.37,2013-03-03 12:10:00,
2013-03-03 03:20:00,26.4,7.4,30.12,NE,50,9.0,16.0,44,0.00,CLR,CLR,0.00,WeatherDisplay:10.37,2013-03-03 12:20:00,
2013-03-03 03:30:00,26.6,7.6,30.12,NE,47,9.0,14.0,44,0.00,CLR,CLR,0.00,WeatherDisplay:10.37,2013-03-03 12:30:00,
2013-03-03 03:35:00,26.8,7.8,30.12,NNE,33,9.0,14.0,44,0.00,CLR,CLR,0.00,WeatherDisplay:10.37,2013-03-03 12:35:00,
2013-03-03 03:45:00,26.7,7.7,30.12,NE,41,8.0,20.0,44,0.00,CLR,CLR,0.00,WeatherDisplay:10.37,2013-03-03 12:45:00,
2013-03-03 03:50:00,26.6,7.6,30.12,NE,40,9.0,18.0,44,0.00,CLR,CLR,0.00,WeatherDisplay:10.37,2013-03-03 12:50:00,
2013-03-03 04:00:00,26.4,7.4,30.12,NNE,31,9.0,15.0,44,0.00,CLR,CLR,0.00,WeatherDisplay:10.37,2013-03-03 13:00:00,
2013-03-03 04:05:00,26.3,7.3,30.12,NNE,32,10.0,18.0,44,0.00,CLR,CLR,0.00,WeatherDisplay:10.37,2013-03-03 13:05:00,
2013-03-03 04:15:00,26.1,7.1,30.12,NNE,33,8.0,16.0,44,0.00,CLR,CLR,0.00,WeatherDisplay:10.37,2013-03-03 13:15:00,
2013-03-03 04:20:00,26.1,7.1,30.12,NE,47,8.0,19.0,44,0.00,CLR,CLR,0.00,WeatherDisplay:10.37,2013-03-03 13:20:00,
2013-03-03 04:30:00,25.7,7.3,30.12,NE,45,10.0,15.0,45,0.00,CLR,CLR,0.00,WeatherDisplay:10.37,2013-03-03 13:30:00,
2013-03-03 04:34:00,25.9,7.4,30.12,NE,46,10.0,17.0,45,0.00,CLR,CLR,0.00,WeatherDisplay:10.37,2013-03-03 13:34:00,
2013-03-03 04:39:00,25.7,7.3,30.12,NE,48,10.0,17.0,45,0.00,CLR,CLR,0.00,WeatherDisplay:10.37,2013-03-03 13:39:00,
2013-03-03 04:49:00,25.7,7.3,30.15,NE,35,7.0,21.0,45,0.00,CLR,CLR,0.00,WeatherDisplay:10.37,2013-03-03 13:49:00,
2013-03-03 04:54:00,25.5,7.1,30.15,NE,42,9.0,19.0,45,0.00,CLR,CLR,0.00,WeatherDisplay:10.37,2013-03-03 13:54:00,
2013-03-03 05:04:00,25.5,7.1,30.15,NE,37,9.0,18.0,45,0.00,CLR,CLR,0.00,WeatherDisplay:10.37,2013-03-03 14:04:00,
2013-03-03 05:14:00,25.5,7.1,30.15,NE,37,8.0,16.0,45,0.00,CLR,CLR,0.00,WeatherDisplay:10.37,2013-03-03 14:14:00,
2013-03-03 05:19:00,25.5,7.1,30.15,NE,51,8.0,15.0,45,0.00,CLR,CLR,0.00,WeatherDisplay:10.37,2013-03-03 14:19:00,
2013-03-03 05:24:00,25.5,7.1,30.15,NE,53,9.0,16.0,45,0.00,CLR,CLR,0.00,WeatherDisplay:10.37,2013-03-03 14:24:00,
2013-03-03 05:29:00,25.7,7.3,30.15,NE,45,9.0,20.0,45,0.00,CLR,CLR,0.00,WeatherDisplay:10.37,2013-03-03 14:29:00,
2013-03-03 05:39:00,26.1,7.6,30.15,NE,45,10.0,20.0,45,0.00,CLR,CLR,0.00,WeatherDisplay:10.37,2013-03-03 14:39:00,
2013-03-03 05:49:00,25.9,7.4,30.15,NNE,19,8.0,16.0,45,0.00,CLR,CLR,0.00,WeatherDisplay:10.37,2013-03-03 14:49:00,
2013-03-03 05:59:00,25.7,7.3,30.15,NE,38,9.0,14.0,45,0.00,CLR,CLR,0.00,WeatherDisplay:10.37,2013-03-03 14:59:00,
2013-03-03 06:04:00,25.9,7.4,30.15,NE,41,8.0,16.0,45,0.00,CLR,CLR,0.00,WeatherDisplay:10.37,2013-03-03 15:04:00,
2013-03-03 06:09:00,25.9,7.4,30.15,NE,50,9.0,16.0,45,0.00,CLR,CLR,0.00,WeatherDisplay:10.37,2013-03-03 15:09:00,
2013-03-03 06:19:00,26.1,7.6,30.15,NE,46,10.0,18.0,45,0.00,CLR,CLR,0.00,WeatherDisplay:10.37,2013-03-03 15:19:00,
2013-03-03 06:29:00,26.1,7.6,30.15,NNE,33,8.0,23.0,45,0.00,CLR,CLR,0.00,WeatherDisplay:10.37,2013-03-03 15:29:00,
2013-03-03 06:35:00,26.1,7.6,30.18,NE,38,10.0,19.0,45,0.00,CLR,CLR,0.00,WeatherDisplay:10.37,2013-03-03 15:35:00,
2013-03-03 06:40:00,26.1,7.6,30.18,NE,39,9.0,16.0,45,0.00,CLR,CLR,0.00,WeatherDisplay:10.37,2013-03-03 15:40:00,
2013-03-03 06:50:00,25.9,7.9,30.18,NNE,31,10.0,21.0,46,0.00,CLR,CLR,0.00,WeatherDisplay:10.37,2013-03-03 15:50:00,
2013-03-03 07:00:00,26.1,8.1,30.18,NE,45,12.0,17.0,46,0.00,CLR,CLR,0.00,WeatherDisplay:10.37,2013-03-03 16:00:00,
2013-03-03 07:05:00,25.9,7.9,30.18,NE,40,10.0,19.0,46,0.00,CLR,CLR,0.00,WeatherDisplay:10.37,2013-03-03 16:05:00,
2013-03-03 07:15:00,25.9,7.9,30.18,NE,45,12.0,20.0,46,0.00,CLR,CLR,0.00,WeatherDisplay:10.37,2013-03-03 16:15:00,
2013-03-03 07:20:00,25.7,7.7,30.18,NE,47,14.0,22.0,46,0.00,CLR,CLR,0.00,WeatherDisplay:10.37,2013-03-03 16:20:00,
2013-03-03 07:30:00,25.5,7.6,30.18,NE,49,9.0,16.0,46,0.00,CLR,CLR,0.00,WeatherDisplay:10.37,2013-03-03 16:30:00,
2013-03-03 07:35:00,25.5,8.1,30.18,NE,41,10.0,18.0,47,0.00,CLR,CLR,0.00,WeatherDisplay:10.37,2013-03-03 16:35:00,
2013-03-03 07:45:00,25.9,8.4,30.18,NE,49,12.0,19.0,47,0.00,CLR,CLR,0.00,WeatherDisplay:10.37,2013-03-03 16:45:00,
2013-03-03 07:55:00,25.9,8.4,30.18,NE,50,9.0,28.0,47,0.00,CLR,CLR,0.00,WeatherDisplay:10.37,2013-03-03 16:55:00,
2013-03-03 08:00:00,26.1,8.6,30.18,NE,54,9.0,18.0,47,0.00,CLR,CLR,0.00,WeatherDisplay:10.37,2013-03-03 17:00:00,
2013-03-03 08:05:00,26.1,8.6,30.18,NE,45,8.0,20.0,47,0.00,CLR,CLR,0.00,WeatherDisplay:10.37,2013-03-03 17:05:00,
2013-03-03 08:15:00,26.1,8.6,30.18,NE,42,9.0,19.0,47,0.00,CLR,CLR,0.00,WeatherDisplay:10.37,2013-03-03 17:15:00,
2013-03-03 08:20:00,26.1,8.6,30.21,NE,50,10.0,18.0,47,0.00,CLR,CLR,0.00,WeatherDisplay:10.37,2013-03-03 17:20:00,
2013-03-03 08:30:00,26.1,8.6,30.21,NE,47,14.0,23.0,47,0.00,CLR,CLR,0.00,WeatherDisplay:10.37,2013-03-03 17:30:00,
2013-03-03 08:39:00,26.4,8.9,30.21,NE,45,9.0,18.0,47,0.00,CLR,CLR,0.00,WeatherDisplay:10.37,2013-03-03 17:39:00,
2013-03-03 08:44:00,26.4,8.9,30.21,NE,41,13.0,25.0,47,0.00,CLR,CLR,0.00,WeatherDisplay:10.37,2013-03-03 17:44:00,
2013-03-03 08:54:00,26.6,9.1,30.21,NE,49,12.0,21.0,47,0.00,CLR,CLR,0.00,WeatherDisplay:10.37,2013-03-03 17:54:00,
2013-03-03 08:59:00,27.0,8.9,30.21,NE,49,12.0,21.0,46,0.00,CLR,CLR,0.00,WeatherDisplay:10.37,2013-03-03 17:59:00,
2013-03-03 09:04:00,27.1,9.1,30.21,NE,50,8.0,22.0,46,0.00,CLR,CLR,0.00,WeatherDisplay:10.37,2013-03-03 18:04:00,
2013-03-03 09:14:00,27.6,9.5,30.21,NE,50,13.0,21.0,46,0.00,CLR,CLR,0.00,WeatherDisplay:10.37,2013-03-03 18:14:00,
2013-03-03 09:19:00,27.9,9.2,30.21,NE,48,13.0,19.0,45,0.00,BKN,BKN,0.00,WeatherDisplay:10.37,2013-03-03 18:19:00,
2013-03-03 09:24:00,28.0,9.4,30.21,NE,49,9.0,21.0,45,0.00,BKN,BKN,0.00,WeatherDisplay:10.37,2013-03-03 18:24:00,
2013-03-03 09:29:00,28.2,9.6,30.21,NE,50,8.0,20.0,45,0.00,BKN,BKN,0.00,WeatherDisplay:10.37,2013-03-03 18:29:00,
2013-03-03 09:34:00,28.6,9.9,30.21,NE,50,9.0,16.0,45,0.00,BKN,BKN,0.00,WeatherDisplay:10.37,2013-03-03 18:34:00,
2013-03-03 09:44:00,29.6,10.3,30.21,NE,42,9.0,24.0,44,0.00,BKN,BKN,0.00,WeatherDisplay:10.37,2013-03-03 18:44:00,
2013-03-03 09:49:00,29.7,10.4,30.24,NE,40,13.0,29.0,44,0.00,BKN,BKN,0.00,WeatherDisplay:10.37,2013-03-03 18:49:00,
2013-03-03 09:59:00,29.8,10.0,30.24,NE,51,12.0,16.0,43,0.00,BKN,BKN,0.00,WeatherDisplay:10.37,2013-03-03 18:59:00,
2013-03-03 10:09:00,30.2,10.4,30.24,NE,41,10.0,21.0,43,0.00,BKN,BKN,0.00,WeatherDisplay:10.37,2013-03-03 19:09:00,
2013-03-03 10:14:00,30.6,10.7,30.24,NE,56,8.0,20.0,43,0.00,BKN,BKN,0.00,WeatherDisplay:10.37,2013-03-03 19:14:00,
2013-03-03 10:24:00,30.9,10.5,30.21,NE,56,9.0,15.0,42,0.00,OVC,OVC,0.00,WeatherDisplay:10.37,2013-03-03 19:24:00,
2013-03-03 10:35:00,31.1,10.6,30.24,NE,40,8.0,20.0,42,0.00,OVC,OVC,0.00,WeatherDisplay:10.37,2013-03-03 19:35:00,
2013-03-03 10:45:00,31.8,11.3,30.24,NE,49,8.0,16.0,42,0.00,OVC,OVC,0.00,WeatherDisplay:10.37,2013-03-03 19:45:00,
2013-03-03 10:55:00,32.0,11.5,30.24,NE,38,10.0,18.0,42,0.00,OVC,OVC,0.00,WeatherDisplay:10.37,2013-03-03 19:55:00,
2013-03-03 11:05:00,31.8,11.3,30.27,NNE,33,9.0,20.0,42,0.00,OVC,OVC,0.00,WeatherDisplay:10.37,2013-03-03 20:05:00,
2013-03-03 11:10:00,31.6,11.1,30.27,NNE,33,10.0,20.0,42,0.00,OVC,OVC,0.00,WeatherDisplay:10.37,2013-03-03 20:10:00,
2013-03-03 11:15:00,31.6,11.1,30.27,NE,38,9.0,18.0,42,0.00,OVC,OVC,0.00,WeatherDisplay:10.37,2013-03-03 20:15:00,
2013-03-03 11:20:00,31.5,11.0,30.27,NE,49,7.0,20.0,42,0.00,OVC,OVC,0.00,WeatherDisplay:10.37,2013-03-03 20:20:00,
2013-03-03 11:25:00,31.5,11.0,30.27,ENE,57,8.0,20.0,42,0.00,OVC,OVC,0.00,WeatherDisplay:10.37,2013-03-03 20:25:00,
2013-03-03 11:30:00,31.6,11.1,30.27,NE,47,9.0,19.0,42,0.00,OVC,OVC,0.00,WeatherDisplay:10.37,2013-03-03 20:30:00,
2013-03-03 11:40:00,32.5,12.0,30.27,NE,54,12.0,16.0,42,0.00,OVC,OVC,0.00,WeatherDisplay:10.37,2013-03-03 20:40:00,
2013-03-03 11:45:00,32.7,12.1,30.27,NE,54,7.0,13.0,42,0.00,OVC,OVC,0.00,WeatherDisplay:10.37,2013-03-03 20:45:00,
2013-03-03 11:50:00,32.7,11.6,30.27,NE,50,10.0,18.0,41,0.00,OVC,OVC,0.00,WeatherDisplay:10.37,2013-03-03 20:50:00,
2013-03-03 12:00:00,32.7,12.1,30.27,NE,45,8.0,18.0,42,0.00,OVC,OVC,0.00,WeatherDisplay:10.37,2013-03-03 21:00:00,
2013-03-03 12:10:00,32.9,12.3,30.27,NE,50,12.0,16.0,42,0.00,OVC,OVC,0.00,WeatherDisplay:10.37,2013-03-03 21:10:00,
2013-03-03 12:20:00,32.9,12.3,30.27,NE,54,7.0,16.0,42,0.00,OVC,OVC,0.00,WeatherDisplay:10.37,2013-03-03 21:20:00,
2013-03-03 12:25:00,33.0,11.8,30.27,NE,54,9.0,13.0,41,0.00,OVC,OVC,0.00,WeatherDisplay:10.37,2013-03-03 21:25:00,
2013-03-03 12:30:00,33.1,11.9,30.27,NE,56,10.0,21.0,41,0.00,OVC,OVC,0.00,WeatherDisplay:10.37,2013-03-03 21:30:00,
2013-03-03 12:39:00,33.3,12.1,30.27,NE,46,7.0,15.0,41,0.00,OVC,OVC,0.00,WeatherDisplay:10.37,2013-03-03 21:39:00,
2013-03-03 12:44:00,33.4,12.2,30.27,NE,44,9.0,18.0,41,0.00,OVC,OVC,0.00,WeatherDisplay:10.37,2013-03-03 21:44:00,
2013-03-03 12:54:00,33.8,12.6,30.27,NE,55,8.0,19.0,41,0.00,OVC,OVC,0.00,WeatherDisplay:10.37,2013-03-03 21:54:00,
2013-03-03 13:04:00,34.0,12.8,30.30,NE,55,9.0,23.0,41,0.00,OVC,OVC,0.00,WeatherDisplay:10.37,2013-03-03 22:04:00,
2013-03-03 13:09:00,34.3,12.5,30.30,NE,45,8.0,20.0,40,0.00,OVC,OVC,0.00,WeatherDisplay:10.37,2013-03-03 22:09:00,
2013-03-03 13:19:00,35.1,13.1,30.30,NE,45,8.0,16.0,40,0.00,OVC,OVC,0.00,WeatherDisplay:10.37,2013-03-03 22:19:00,
2013-03-03 13:29:00,35.4,13.5,30.30,NE,50,12.0,23.0,40,0.00,OVC,OVC,0.00,WeatherDisplay:10.37,2013-03-03 22:29:00,
2013-03-03 13:39:00,35.1,13.1,30.27,NE,54,12.0,16.0,40,0.00,OVC,OVC,0.00,WeatherDisplay:10.37,2013-03-03 22:39:00,
2013-03-03 13:44:00,35.2,13.3,30.27,NE,55,8.0,16.0,40,0.00,OVC,OVC,0.00,WeatherDisplay:10.37,2013-03-03 22:44:00,
2013-03-03 13:49:00,35.4,13.5,30.27,NE,44,10.0,22.0,40,0.00,OVC,OVC,0.00,WeatherDisplay:10.37,2013-03-03 22:49:00,
2013-03-03 13:59:00,35.4,13.5,30.27,ENE,62,10.0,22.0,40,0.00,OVC,OVC,0.00,WeatherDisplay:10.37,2013-03-03 22:59:00,
2013-03-03 14:09:00,35.6,13.0,30.27,NE,40,10.0,16.0,39,0.00,OVC,OVC,0.00,WeatherDisplay:10.37,2013-03-03 23:09:00,
2013-03-03 14:14:00,36.0,13.9,30.27,NE,47,10.0,15.0,40,0.00,OVC,OVC,0.00,WeatherDisplay:10.37,2013-03-03 23:14:00,
2013-03-03 14:24:00,36.3,14.3,30.27,NE,56,10.0,20.0,40,0.00,OVC,OVC,0.00,WeatherDisplay:10.37,2013-03-03 23:24:00,
2013-03-03 14:29:00,36.6,13.9,30.27,NE,46,10.0,20.0,39,0.00,OVC,OVC,0.00,WeatherDisplay:10.37,2013-03-03 23:29:00,
2013-03-03 14:35:00,36.7,14.1,30.27,NE,46,7.0,21.0,39,0.00,OVC,OVC,0.00,WeatherDisplay:10.37,2013-03-03 23:35:00,
2013-03-03 14:40:00,36.9,14.2,30.27,NE,48,8.0,18.0,39,0.00,OVC,OVC,0.00,WeatherDisplay:10.37,2013-03-03 23:40:00,
2013-03-03 14:50:00,36.9,14.2,30.27,NE,54,8.0,16.0,39,0.00,OVC,OVC,0.00,WeatherDisplay:10.37,2013-03-03 23:50:00,
2013-03-03 15:00:00,36.7,14.0,30.27,NE,42,8.0,18.0,39,0.00,BKN,BKN,0.00,WeatherDisplay:10.37,2013-03-04 00:00:00,
2013-03-03 15:05:00,36.6,14.0,30.30,NE,44,9.0,16.0,39,0.00,BKN,BKN,0.00,WeatherDisplay:10.37,2013-03-04 00:05:00,
2013-03-03 15:15:00,36.3,13.7,30.30,NE,38,9.0,20.0,39,0.00,BKN,BKN,0.00,WeatherDisplay:10.37,2013-03-04 00:15:00,
2013-03-03 15:25:00,36.5,13.9,30.30,NE,39,9.0,19.0,39,0.00,BKN,BKN,0.00,WeatherDisplay:10.37,2013-03-04 00:25:00,
2013-03-03 15:30:00,36.7,14.0,30.30,NE,44,7.0,20.0,39,0.00,BKN,BKN,0.00,WeatherDisplay:10.37,2013-03-04 00:30:00,
2013-03-03 15:40:00,36.6,13.9,30.27,ENE,57,7.0,15.0,39,0.00,BKN,BKN,0.00,WeatherDisplay:10.37,2013-03-04 00:40:00,
2013-03-03 15:45:00,36.5,13.9,30.27,ENE,58,9.0,13.0,39,0.00,BKN,BKN,0.00,WeatherDisplay:10.37,2013-03-04 00:45:00,
2013-03-03 15:55:00,36.3,13.7,30.30,NE,41,8.0,13.0,39,0.00,BKN,BKN,0.00,WeatherDisplay:10.37,2013-03-04 00:55:00,
2013-03-03 16:05:00,36.1,13.5,30.30,NE,38,8.0,20.0,39,0.00,BKN,BKN,0.00,WeatherDisplay:10.37,2013-03-04 01:05:00,
2013-03-03 16:15:00,36.0,13.4,30.30,NE,45,8.0,17.0,39,0.00,BKN,BKN,0.00,WeatherDisplay:10.37,2013-03-04 01:15:00,
2013-03-03 16:20:00,36.0,13.4,30.30,NE,51,10.0,15.0,39,0.00,BKN,BKN,0.00,WeatherDisplay:10.37,2013-03-04 01:20:00,
2013-03-03 16:29:00,35.8,13.2,30.30,NE,41,6.0,17.0,39,0.00,BKN,BKN,0.00,WeatherDisplay:10.37,2013-03-04 01:29:00,
2013-03-03 16:34:00,35.8,13.2,30.30,NE,44,6.0,10.0,39,0.00,BKN,BKN,0.00,WeatherDisplay:10.37,2013-03-04 01:34:00,
2013-03-03 16:44:00,35.6,13.0,30.30,NE,38,7.0,14.0,39,0.00,BKN,BKN,0.00,WeatherDisplay:10.37,2013-03-04 01:44:00,
2013-03-03 16:54:00,35.4,12.9,30.30,NE,40,7.0,15.0,39,0.00,BKN,BKN,0.00,WeatherDisplay:10.37,2013-03-04 01:54:00,
2013-03-03 17:04:00,35.1,13.1,30.33,NE,42,5.0,16.0,40,0.00,BKN,BKN,0.00,WeatherDisplay:10.37,2013-03-04 02:04:00,
2013-03-03 17:14:00,34.9,12.4,30.33,ENE,58,7.0,11.0,39,0.00,BKN,BKN,0.00,WeatherDisplay:10.37,2013-03-04 02:14:00,
2013-03-03 17:24:00,34.7,12.8,30.33,ENE,57,8.0,13.0,40,0.00,OVC,OVC,0.00,WeatherDisplay:10.37,2013-03-04 02:24:00,
2013-03-03 17:29:00,34.5,12.6,30.33,NE,49,9.0,13.0,40,0.00,OVC,OVC,0.00,WeatherDisplay:10.37,2013-03-04 02:29:00,
2013-03-03 17:34:00,34.5,12.6,30.33,NE,46,10.0,16.0,40,0.00,OVC,OVC,0.00,WeatherDisplay:10.37,2013-03-04 02:34:00,
2013-03-03 17:44:00,34.2,12.3,30.33,NE,52,8.0,14.0,40,0.00,OVC,OVC,0.00,WeatherDisplay:10.37,2013-03-04 02:44:00,
2013-03-03 17:54:00,33.9,12.0,30.33,NE,53,6.0,13.0,40,0.00,OVC,OVC,0.00,WeatherDisplay:10.37,2013-03-04 02:54:00,
2013-03-03 18:04:00,33.4,11.7,30.33,NE,53,9.0,17.0,40,0.00,OVC,OVC,0.00,WeatherDisplay:10.37,2013-03-04 03:04:00,
2013-03-03 18:09:00,33.4,11.7,30.33,NE,55,7.0,13.0,40,0.00,OVC,OVC,0.00,WeatherDisplay:10.37,2013-03-04 03:09:00,
2013-03-03 18:19:00,33.1,11.3,30.36,ENE,59,8.0,15.0,40,0.00,OVC,OVC,0.00,WeatherDisplay:10.37,2013-03-04 03:19:00,
2013-03-03 18:29:00,32.9,11.2,30.36,NE,53,9.0,16.0,40,0.00,OVC,OVC,0.00,WeatherDisplay:10.37,2013-03-04 03:29:00,
2013-03-03 18:35:00,32.7,11.0,30.36,NE,45,7.0,13.0,40,0.00,OVC,OVC,0.00,WeatherDisplay:10.37,2013-03-04 03:35:00,
2013-03-03 18:40:00,32.7,11.0,30.36,NE,54,7.0,13.0,40,0.00,OVC,OVC,0.00,WeatherDisplay:10.37,2013-03-04 03:40:00,
2013-03-03 18:50:00,32.5,10.9,30.36,ENE,60,9.0,17.0,40,0.00,OVC,OVC,0.00,WeatherDisplay:10.37,2013-03-04 03:50:00,
2013-03-03 18:55:00,32.5,11.4,30.36,NE,56,8.0,19.0,41,0.00,OVC,OVC,0.00,WeatherDisplay:10.37,2013-03-04 03:55:00,
2013-03-03 19:00:00,32.4,11.2,30.36,NE,51,7.0,16.0,41,0.00,OVC,OVC,0.00,WeatherDisplay:10.37,2013-03-04 04:00:00,
2013-03-03 19:10:00,32.2,11.1,30.33,NE,34,10.0,18.0,41,0.00,OVC,OVC,0.00,WeatherDisplay:10.37,2013-03-04 04:10:00,
2013-03-03 19:20:00,32.0,10.9,30.36,NE,46,10.0,22.0,41,0.00,OVC,OVC,0.00,WeatherDisplay:10.37,2013-03-04 04:20:00,
2013-03-03 19:30:00,31.5,10.4,30.36,NE,36,8.0,22.0,41,0.00,OVC,OVC,0.00,WeatherDisplay:10.37,2013-03-04 04:30:00,
2013-03-03 19:35:00,31.5,10.4,30.36,NE,44,9.0,18.0,41,0.00,OVC,OVC,0.00,WeatherDisplay:10.37,2013-03-04 04:35:00,
2013-03-03 19:45:00,31.3,10.3,30.36,NE,52,8.0,20.0,41,0.00,OVC,OVC,0.00,WeatherDisplay:10.37,2013-03-04 04:45:00,
2013-03-03 19:50:00,31.1,10.1,30.36,NE,56,12.0,16.0,41,0.00,OVC,OVC,0.00,WeatherDisplay:10.37,2013-03-04 04:50:00,
2013-03-03 19:55:00,31.0,10.1,30.36,ENE,57,8.0,20.0,41,0.00,OVC,OVC,0.00,WeatherDisplay:10.37,2013-03-04 04:55:00,
2013-03-03 20:00:00,30.9,9.9,30.36,ENE,58,9.0,17.0,41,0.00,OVC,OVC,0.00,WeatherDisplay:10.37,2013-03-04 05:00:00,
2013-03-03 20:05:00,30.9,9.9,30.36,ENE,60,8.0,13.0,41,0.00,OVC,OVC,0.00,WeatherDisplay:10.37,2013-03-04 05:05:00,
2013-03-03 20:10:00,30.7,9.8,30.36,ENE,65,8.0,18.0,41,0.00,OVC,OVC,0.00,WeatherDisplay:10.37,2013-03-04 05:10:00,
2013-03-03 20:15:00,30.7,9.8,30.36,ENE,60,8.0,20.0,41,0.00,OVC,OVC,0.00,WeatherDisplay:10.37,2013-03-04 05:15:00,
2013-03-03 20:20:00,30.7,9.8,30.36,NE,55,10.0,16.0,41,0.00,OVC,OVC,0.00,WeatherDisplay:10.37,2013-03-04 05:20:00,
2013-03-03 20:25:00,30.7,9.8,30.36,NE,53,10.0,16.0,41,0.00,OVC,OVC,0.00,WeatherDisplay:10.37,2013-03-04 05:25:00,
2013-03-03 20:30:00,30.6,9.6,30.36,NE,44,9.0,16.0,41,0.00,OVC,OVC,0.00,WeatherDisplay:10.37,2013-03-04 05:30:00,
2013-03-03 20:39:00,30.6,9.6,30.39,NE,44,9.0,21.0,41,0.00,CLR,CLR,0.00,WeatherDisplay:10.37,2013-03-04 05:39:00,
2013-03-03 20:49:00,30.6,9.6,30.39,NE,50,10.0,16.0,41,0.00,CLR,CLR,0.00,WeatherDisplay:10.37,2013-03-04 05:49:00,
2013-03-03 20:54:00,30.4,9.5,30.39,NE,42,12.0,16.0,41,0.00,CLR,CLR,0.00,WeatherDisplay:10.37,2013-03-04 05:54:00,
2013-03-03 21:04:00,30.2,9.3,30.39,NE,43,8.0,21.0,41,0.00,CLR,CLR,0.00,WeatherDisplay:10.37,2013-03-04 06:04:00,
2013-03-03 21:14:00,30.2,9.3,30.39,NE,43,10.0,16.0,41,0.00,CLR,CLR,0.00,WeatherDisplay:10.37,2013-03-04 06:14:00,
2013-03-03 21:19:00,30.0,9.1,30.39,NE,47,9.0,18.0,41,0.00,CLR,CLR,0.00,WeatherDisplay:10.37,2013-03-04 06:19:00,
2013-03-03 21:29:00,29.8,9.0,30.39,NE,46,9.0,16.0,41,0.00,CLR,CLR,0.00,WeatherDisplay:10.37,2013-03-04 06:29:00,
2013-03-03 21:39:00,29.8,9.0,30.39,NNE,31,10.0,16.0,41,0.00,CLR,CLR,0.00,WeatherDisplay:10.37,2013-03-04 06:39:00,
2013-03-03 21:44:00,30.0,9.1,30.39,NE,39,10.0,14.0,41,0.00,CLR,CLR,0.00,WeatherDisplay:10.37,2013-03-04 06:44:00,
2013-03-03 21:54:00,29.8,9.0,30.39,NE,42,7.0,14.0,41,0.00,CLR,CLR,0.00,WeatherDisplay:10.37,2013-03-04 06:54:00,
2013-03-03 22:04:00,29.8,9.0,30.39,NNE,33,8.0,11.0,41,0.00,CLR,CLR,0.00,WeatherDisplay:10.37,2013-03-04 07:04:00,
2013-03-03 22:09:00,29.8,9.5,30.39,NE,44,7.0,13.0,42,0.00,CLR,CLR,0.00,WeatherDisplay:10.37,2013-03-04 07:09:00,
2013-03-03 22:14:00,29.7,9.3,30.39,NE,44,7.0,13.0,42,0.00,CLR,CLR,0.00,WeatherDisplay:10.37,2013-03-04 07:14:00,
2013-03-03 22:24:00,29.5,9.2,30.42,NE,47,8.0,15.0,42,0.00,FEW,FEW,0.00,WeatherDisplay:10.37,2013-03-04 07:24:00,
2013-03-03 22:30:00,29.5,9.2,30.42,NE,41,8.0,14.0,42,0.00,FEW,FEW,0.00,WeatherDisplay:10.37,2013-03-04 07:30:00,
2013-03-03 22:40:00,29.3,9.0,30.42,NE,43,9.0,16.0,42,0.00,FEW,FEW,0.00,WeatherDisplay:10.37,2013-03-04 07:40:00,
2013-03-03 22:50:00,29.3,9.0,30.42,NE,39,9.0,18.0,42,0.00,FEW,FEW,0.00,WeatherDisplay:10.37,2013-03-04 07:50:00,
2013-03-03 22:55:00,29.3,9.0,30.42,NE,44,6.0,14.0,42,0.00,FEW,FEW,0.00,WeatherDisplay:10.37,2013-03-04 07:55:00,
2013-03-03 23:05:00,29.3,9.0,30.42,NE,50,9.0,16.0,42,0.00,FEW,FEW,0.00,WeatherDisplay:10.37,2013-03-04 08:05:00,
2013-03-03 23:10:00,29.3,9.0,30.42,NE,46,9.0,14.0,42,0.00,FEW,FEW,0.00,WeatherDisplay:10.37,2013-03-04 08:10:00,
2013-03-03 23:15:00,29.3,9.0,30.42,NE,40,7.0,14.0,42,0.00,FEW,FEW,0.00,WeatherDisplay:10.37,2013-03-04 08:15:00,
2013-03-03 23:20:00,29.1,8.8,30.42,NE,40,7.0,13.0,42,0.00,SCT,SCT,0.00,WeatherDisplay:10.37,2013-03-04 08:20:00,
2013-03-03 23:30:00,29.1,8.8,30.42,NE,47,8.0,15.0,42,0.00,SCT,SCT,0.00,WeatherDisplay:10.37,2013-03-04 08:30:00,
2013-03-03 23:40:00,29.1,8.8,30.42,NE,47,8.0,14.0,42,0.00,SCT,SCT,0.00,WeatherDisplay:10.37,2013-03-04 08:40:00,
2013-03-03 23:50:00,28.9,8.7,30.42,NE,42,9.0,13.0,42,0.00,SCT,SCT,0.00,WeatherDisplay:10.37,2013-03-04 08:50:00,